createdAt,value
2018-09-09T00:00:00.988Z,15.20
2018-09-09T00:00:32.110Z,14.90
2018-09-09T00:01:03.269Z,14.47
2018-09-09T00:01:34.393Z,14.67
2018-09-09T00:02:05.622Z,15.83
2018-09-09T00:02:36.811Z,15.23
2018-09-09T00:03:07.922Z,15.67
2018-09-09T00:03:39.122Z,14.47
2018-09-09T00:04:10.337Z,15.50
2018-09-09T00:04:41.522Z,15.57
2018-09-09T00:05:12.631Z,15.43
2018-09-09T00:05:43.804Z,15.30
2018-09-09T00:06:14.968Z,15.10
2018-09-09T00:06:46.161Z,15.30
2018-09-09T00:07:17.302Z,16.70
2018-09-09T00:07:48.413Z,15.10
2018-09-09T00:08:19.585Z,15.17
2018-09-09T00:08:50.756Z,15.93
2018-09-09T00:09:21.895Z,14.53
2018-09-09T00:09:53.009Z,15.37
2018-09-09T00:10:24.221Z,15.73
2018-09-09T00:10:55.420Z,14.70
2018-09-09T00:11:27.536Z,14.40
2018-09-09T00:11:58.703Z,15.63
2018-09-09T00:12:29.868Z,15.20
2018-09-09T00:13:01.109Z,15.00
2018-09-09T00:13:32.277Z,15.43
2018-09-09T00:14:03.427Z,15.60
2018-09-09T00:14:34.583Z,16.43
2018-09-09T00:15:05.693Z,15.40
2018-09-09T00:15:36.829Z,15.17
2018-09-09T00:16:07.992Z,14.73
2018-09-09T00:16:39.233Z,13.83
2018-09-09T00:17:10.359Z,15.50
2018-09-09T00:17:41.589Z,15.50
2018-09-09T00:18:12.820Z,14.87
2018-09-09T00:18:43.969Z,15.83
2018-09-09T00:19:15.097Z,15.37
2018-09-09T00:19:46.265Z,14.97
2018-09-09T00:20:17.385Z,16.80
2018-09-09T00:20:48.508Z,15.30
2018-09-09T00:21:19.623Z,15.03
2018-09-09T00:21:50.851Z,16.13
2018-09-09T00:22:22.083Z,15.97
2018-09-09T00:22:53.203Z,15.47
2018-09-09T00:23:24.364Z,15.70
2018-09-09T00:23:55.524Z,15.50
2018-09-09T00:24:26.632Z,15.57
2018-09-09T00:24:57.783Z,15.03
2018-09-09T00:25:28.896Z,14.90
2018-09-09T00:26:00.013Z,15.20
2018-09-09T00:26:31.196Z,14.77
2018-09-09T00:27:02.308Z,15.10
2018-09-09T00:27:33.513Z,15.77
2018-09-09T00:28:04.636Z,15.43
2018-09-09T00:28:35.769Z,15.53
2018-09-09T00:29:06.982Z,15.23
2018-09-09T00:29:38.109Z,15.47
2018-09-09T00:30:09.296Z,15.03
2018-09-09T00:30:40.415Z,15.00
2018-09-09T00:31:11.584Z,14.47
2018-09-09T00:31:42.764Z,15.80
2018-09-09T00:32:13.889Z,15.57
2018-09-09T00:32:45.111Z,15.67
2018-09-09T00:33:17.127Z,15.67
2018-09-09T00:33:48.243Z,15.20
2018-09-09T00:34:19.504Z,14.93
2018-09-09T00:34:50.620Z,15.50
2018-09-09T00:35:21.732Z,15.13
2018-09-09T00:35:52.905Z,15.33
2018-09-09T00:36:24.077Z,16.23
2018-09-09T00:36:55.260Z,15.03
2018-09-09T00:37:26.376Z,15.37
2018-09-09T00:37:57.495Z,16.27
2018-09-09T00:38:28.621Z,15.57
2018-09-09T00:38:59.810Z,15.43
2018-09-09T00:39:30.956Z,15.60
2018-09-09T00:40:02.068Z,15.00
2018-09-09T00:40:33.296Z,15.20
2018-09-09T00:41:04.469Z,16.17
2018-09-09T00:41:35.645Z,15.80
2018-09-09T00:42:06.816Z,15.27
2018-09-09T00:42:37.984Z,14.93
2018-09-09T00:43:09.165Z,16.70
2018-09-09T00:43:40.328Z,16.23
2018-09-09T00:44:11.554Z,15.87
2018-09-09T00:44:42.675Z,15.90
2018-09-09T00:45:13.803Z,15.23
2018-09-09T00:45:44.992Z,16.33
2018-09-09T00:46:16.188Z,15.97
2018-09-09T00:46:47.308Z,16.17
2018-09-09T00:47:18.464Z,16.67
2018-09-09T00:47:49.582Z,16.10
2018-09-09T00:48:20.755Z,16.27
2018-09-09T00:48:51.899Z,15.97
2018-09-09T00:49:23.127Z,16.47
2018-09-09T00:49:54.314Z,16.03
2018-09-09T00:50:25.430Z,16.17
2018-09-09T00:50:56.656Z,16.33
2018-09-09T00:51:27.811Z,16.20
2018-09-09T00:51:58.977Z,16.20
2018-09-09T00:52:30.111Z,15.87
2018-09-09T00:53:01.280Z,16.33
2018-09-09T00:53:32.388Z,16.57
2018-09-09T00:54:03.564Z,16.70
2018-09-09T00:54:34.726Z,17.07
2018-09-09T00:55:05.868Z,15.40
2018-09-09T00:55:37.043Z,15.07
2018-09-09T00:56:08.218Z,15.77
2018-09-09T00:56:39.344Z,15.07
2018-09-09T00:57:10.460Z,17.37
2018-09-09T00:57:41.594Z,15.97
2018-09-09T00:58:12.766Z,14.97
2018-09-09T00:58:43.939Z,16.07
2018-09-09T00:59:15.169Z,16.27
2018-09-09T00:59:46.377Z,16.60
2018-09-09T01:00:17.505Z,17.43
2018-09-09T01:00:48.669Z,16.30
2018-09-09T01:01:19.789Z,15.77
2018-09-09T01:01:50.966Z,17.13
2018-09-09T01:02:22.146Z,16.93
2018-09-09T01:02:53.283Z,16.53
2018-09-09T01:03:24.456Z,16.67
2018-09-09T01:03:55.572Z,16.47
2018-09-09T01:04:26.929Z,16.43
2018-09-09T01:04:58.100Z,17.57
2018-09-09T01:05:29.289Z,19.80
2018-09-09T01:06:00.398Z,16.70
2018-09-09T01:06:31.510Z,16.90
2018-09-09T01:07:02.640Z,17.17
2018-09-09T01:07:33.753Z,17.53
2018-09-09T01:08:04.881Z,18.17
2018-09-09T01:08:36.056Z,17.03
2018-09-09T01:09:07.226Z,16.63
2018-09-09T01:09:38.428Z,17.47
2018-09-09T01:10:09.535Z,16.50
2018-09-09T01:10:40.704Z,17.57
2018-09-09T01:11:11.932Z,17.93
2018-09-09T01:11:43.062Z,17.43
2018-09-09T01:12:14.295Z,17.77
2018-09-09T01:12:45.476Z,17.80
2018-09-09T01:13:16.652Z,17.33
2018-09-09T01:13:47.832Z,18.10
2018-09-09T01:14:18.955Z,18.17
2018-09-09T01:14:50.103Z,16.87
2018-09-09T01:15:21.279Z,18.70
2018-09-09T01:15:52.485Z,17.60
2018-09-09T01:16:23.597Z,16.97
2018-09-09T01:16:54.773Z,17.87
2018-09-09T01:17:25.887Z,17.47
2018-09-09T01:17:57.049Z,17.43
2018-09-09T01:18:28.183Z,18.00
2018-09-09T01:18:59.868Z,18.07
2018-09-09T01:19:30.969Z,17.70
2018-09-09T01:20:02.116Z,19.20
2018-09-09T01:20:33.279Z,17.97
2018-09-09T01:21:04.562Z,17.93
2018-09-09T01:21:35.789Z,18.40
2018-09-09T01:22:06.958Z,18.73
2018-09-09T01:22:38.073Z,17.87
2018-09-09T01:23:09.197Z,18.40
2018-09-09T01:23:40.376Z,18.13
2018-09-09T01:24:11.612Z,17.50
2018-09-09T01:24:42.731Z,18.63
2018-09-09T01:25:13.952Z,18.60
2018-09-09T01:25:45.132Z,18.40
2018-09-09T01:26:16.280Z,18.80
2018-09-09T01:26:47.429Z,18.33
2018-09-09T01:27:18.588Z,18.57
2018-09-09T01:27:49.770Z,17.80
2018-09-09T01:28:20.883Z,18.83
2018-09-09T01:28:52.048Z,19.40
2018-09-09T01:29:23.167Z,18.50
2018-09-09T01:29:54.289Z,18.40
2018-09-09T01:30:25.457Z,17.63
2018-09-09T01:30:56.628Z,20.17
2018-09-09T01:31:27.820Z,17.40
2018-09-09T01:31:59.034Z,18.27
2018-09-09T01:32:30.190Z,18.33
2018-09-09T01:33:01.412Z,18.93
2018-09-09T01:33:32.628Z,18.27
2018-09-09T01:34:03.808Z,18.70
2018-09-09T01:34:35.041Z,18.53
2018-09-09T01:35:06.221Z,16.33
2018-09-09T01:35:37.386Z,20.10
2018-09-09T01:36:08.561Z,18.80
2018-09-09T01:36:39.699Z,19.17
2018-09-09T01:37:10.888Z,19.63
2018-09-09T01:37:42.010Z,18.83
2018-09-09T01:38:13.234Z,18.10
2018-09-09T01:38:44.511Z,18.27
2018-09-09T01:39:15.628Z,19.30
2018-09-09T01:39:46.735Z,19.43
2018-09-09T01:40:17.859Z,19.40
2018-09-09T01:40:49.024Z,19.03
2018-09-09T01:41:20.201Z,19.53
2018-09-09T01:41:51.415Z,18.10
2018-09-09T01:42:22.535Z,19.03
2018-09-09T01:42:53.652Z,20.60
2018-09-09T01:43:24.764Z,18.63
2018-09-09T01:43:55.869Z,19.03
2018-09-09T01:44:27.109Z,18.53
2018-09-09T01:44:58.277Z,19.67
2018-09-09T01:45:29.489Z,18.80
2018-09-09T01:46:00.612Z,18.77
2018-09-09T01:46:31.735Z,19.10
2018-09-09T01:47:02.861Z,18.87
2018-09-09T01:47:34.031Z,19.00
2018-09-09T01:48:05.195Z,20.27
2018-09-09T01:48:36.373Z,19.00
2018-09-09T01:49:07.570Z,18.60
2018-09-09T01:49:38.749Z,19.37
2018-09-09T01:50:09.870Z,19.23
2018-09-09T01:50:41.081Z,18.60
2018-09-09T01:51:12.346Z,19.57
2018-09-09T01:51:43.587Z,18.53
2018-09-09T01:52:14.729Z,19.90
2018-09-09T01:52:45.848Z,18.33
2018-09-09T01:53:17.019Z,19.13
2018-09-09T01:53:48.128Z,19.67
2018-09-09T01:54:19.300Z,18.80
2018-09-09T01:54:50.494Z,19.37
2018-09-09T01:55:21.665Z,19.20
2018-09-09T01:55:52.912Z,19.37
2018-09-09T01:56:24.117Z,19.10
2018-09-09T01:56:55.272Z,18.37
2018-09-09T01:57:26.467Z,19.17
2018-09-09T01:57:57.645Z,20.20
2018-09-09T01:58:28.812Z,19.17
2018-09-09T01:59:00.041Z,18.30
2018-09-09T01:59:31.164Z,18.93
2018-09-09T02:00:02.348Z,19.93
2018-09-09T02:00:33.452Z,18.63
2018-09-09T02:01:04.682Z,19.40
2018-09-09T02:01:35.810Z,19.77
2018-09-09T02:02:06.966Z,18.50
2018-09-09T02:02:38.129Z,19.10
2018-09-09T02:03:09.263Z,18.93
2018-09-09T02:03:40.374Z,17.83
2018-09-09T02:04:11.537Z,19.57
2018-09-09T02:04:42.700Z,18.93
2018-09-09T02:05:13.881Z,18.50
2018-09-09T02:05:45.065Z,19.37
2018-09-09T02:06:16.235Z,19.70
2018-09-09T02:06:47.354Z,18.60
2018-09-09T02:07:18.524Z,18.60
2018-09-09T02:07:49.648Z,18.37
2018-09-09T02:08:20.795Z,17.33
2018-09-09T02:08:51.904Z,17.97
2018-09-09T02:09:23.081Z,20.23
2018-09-09T02:09:54.205Z,19.47
2018-09-09T02:10:25.425Z,18.37
2018-09-09T02:10:56.565Z,18.83
2018-09-09T02:11:27.681Z,18.97
2018-09-09T02:11:58.791Z,18.90
2018-09-09T02:12:29.961Z,17.83
2018-09-09T02:13:01.128Z,20.13
2018-09-09T02:13:32.298Z,19.30
2018-09-09T02:14:03.414Z,18.57
2018-09-09T02:14:34.532Z,18.27
2018-09-09T02:15:05.683Z,18.83
2018-09-09T02:15:36.854Z,18.10
2018-09-09T02:16:07.991Z,18.87
2018-09-09T02:16:39.104Z,19.43
2018-09-09T02:17:10.285Z,17.90
2018-09-09T02:17:41.443Z,18.27
2018-09-09T02:18:12.606Z,18.60
2018-09-09T02:18:43.800Z,18.53
2018-09-09T02:19:14.917Z,18.20
2018-09-09T02:19:46.077Z,18.67
2018-09-09T02:20:17.257Z,17.43
2018-09-09T02:20:48.379Z,18.50
2018-09-09T02:21:19.579Z,16.10
2018-09-09T02:21:50.692Z,18.93
2018-09-09T02:22:21.797Z,18.80
2018-09-09T02:22:53.013Z,18.33
2018-09-09T02:23:24.119Z,17.37
2018-09-09T02:23:55.303Z,19.00
2018-09-09T02:24:26.463Z,17.53
2018-09-09T02:24:57.584Z,18.90
2018-09-09T02:25:28.764Z,18.63
2018-09-09T02:25:59.988Z,19.13
2018-09-09T02:26:31.184Z,18.37
2018-09-09T02:27:02.300Z,18.20
2018-09-09T02:27:33.459Z,17.27
2018-09-09T02:28:04.676Z,17.97
2018-09-09T02:28:35.825Z,18.00
2018-09-09T02:29:06.987Z,18.77
2018-09-09T02:29:38.108Z,18.07
2018-09-09T02:30:09.228Z,17.97
2018-09-09T02:30:40.357Z,18.10
2018-09-09T02:31:11.464Z,18.30
2018-09-09T02:31:42.679Z,17.40
2018-09-09T02:32:13.842Z,17.50
2018-09-09T02:32:45.063Z,17.53
2018-09-09T02:33:16.171Z,17.30
2018-09-09T02:33:47.397Z,18.20
2018-09-09T02:34:18.577Z,17.70
2018-09-09T02:34:49.755Z,18.90
2018-09-09T02:35:20.931Z,19.00
2018-09-09T02:35:52.065Z,17.60
2018-09-09T02:36:23.186Z,18.07
2018-09-09T02:36:54.457Z,17.77
2018-09-09T02:37:25.636Z,18.00
2018-09-09T02:37:56.767Z,16.53
2018-09-09T02:38:27.950Z,18.57
2018-09-09T02:38:59.064Z,18.13
2018-09-09T02:39:30.224Z,18.27
2018-09-09T02:40:01.343Z,17.67
2018-09-09T02:40:32.459Z,17.77
2018-09-09T02:41:03.638Z,17.67
2018-09-09T02:41:34.761Z,17.80
2018-09-09T02:42:05.980Z,18.57
2018-09-09T02:42:37.180Z,17.33
2018-09-09T02:43:08.413Z,18.27
2018-09-09T02:43:39.838Z,17.27
2018-09-09T02:44:11.357Z,17.97
2018-09-09T02:44:42.541Z,18.20
2018-09-09T02:45:13.652Z,18.37
2018-09-09T02:45:44.879Z,17.30
2018-09-09T02:46:16.062Z,18.20
2018-09-09T02:46:47.186Z,17.90
2018-09-09T02:47:18.421Z,16.47
2018-09-09T02:47:49.633Z,18.27
2018-09-09T02:48:20.817Z,18.10
2018-09-09T02:48:51.927Z,18.43
2018-09-09T02:49:23.101Z,16.67
2018-09-09T02:49:54.220Z,17.97
2018-09-09T02:50:25.376Z,17.00
2018-09-09T02:50:56.492Z,16.93
2018-09-09T02:51:27.613Z,17.70
2018-09-09T02:51:58.779Z,16.93
2018-09-09T02:52:29.980Z,16.70
2018-09-09T02:53:01.105Z,17.47
2018-09-09T02:53:32.216Z,18.00
2018-09-09T02:54:03.382Z,17.37
2018-09-09T02:54:34.541Z,17.90
2018-09-09T02:55:05.729Z,17.83
2018-09-09T02:55:36.861Z,17.97
2018-09-09T02:56:08.008Z,17.23
2018-09-09T02:56:39.175Z,18.13
2018-09-09T02:57:10.352Z,17.43
2018-09-09T02:57:41.538Z,18.30
2018-09-09T02:58:12.753Z,17.57
2018-09-09T02:58:43.864Z,17.47
2018-09-09T02:59:15.038Z,16.77
2018-09-09T02:59:46.199Z,17.37
2018-09-09T03:00:17.330Z,16.90
2018-09-09T03:00:48.496Z,17.90
2018-09-09T03:01:19.669Z,18.80
2018-09-09T03:01:50.840Z,17.93
2018-09-09T03:02:21.961Z,18.10
2018-09-09T03:02:53.086Z,17.33
2018-09-09T03:03:24.200Z,18.90
2018-09-09T03:03:55.312Z,17.57
2018-09-09T03:04:26.428Z,18.17
2018-09-09T03:04:57.592Z,17.70
2018-09-09T03:05:28.723Z,16.67
2018-09-09T03:05:59.841Z,18.07
2018-09-09T03:06:31.072Z,16.50
2018-09-09T03:07:02.246Z,17.97
2018-09-09T03:07:33.486Z,18.60
2018-09-09T03:08:04.696Z,17.60
2018-09-09T03:08:35.872Z,18.60
2018-09-09T03:09:07.049Z,18.23
2018-09-09T03:09:38.167Z,17.60
2018-09-09T03:10:09.309Z,18.10
2018-09-09T03:10:40.429Z,18.40
2018-09-09T03:11:11.652Z,18.67
2018-09-09T03:11:42.772Z,18.20
2018-09-09T03:12:13.928Z,18.20
2018-09-09T03:12:45.043Z,18.07
2018-09-09T03:13:16.212Z,18.00
2018-09-09T03:13:47.394Z,17.83
2018-09-09T03:14:18.564Z,19.20
2018-09-09T03:14:49.813Z,18.63
2018-09-09T03:15:20.994Z,18.40
2018-09-09T03:15:52.169Z,18.40
2018-09-09T03:16:23.340Z,18.25
2018-09-09T03:16:54.508Z,17.67
2018-09-09T03:17:25.620Z,19.30
2018-09-09T03:17:56.736Z,18.00
2018-09-09T03:18:27.956Z,18.43
2018-09-09T03:18:59.129Z,18.83
2018-09-09T03:19:30.248Z,17.80
2018-09-09T03:20:01.420Z,18.57
2018-09-09T03:20:32.644Z,17.20
2018-09-09T03:21:03.824Z,18.13
2018-09-09T03:21:34.960Z,18.07
2018-09-09T03:22:06.080Z,17.63
2018-09-09T03:22:37.262Z,18.47
2018-09-09T03:23:08.448Z,17.87
2018-09-09T03:23:39.693Z,17.97
2018-09-09T03:24:10.868Z,16.97
2018-09-09T03:24:42.099Z,18.07
2018-09-09T03:25:13.276Z,17.53
2018-09-09T03:25:44.396Z,17.93
2018-09-09T03:26:15.578Z,18.07
2018-09-09T03:26:46.776Z,18.55
2018-09-09T03:27:17.883Z,18.53
2018-09-09T03:27:49.001Z,18.50
2018-09-09T03:28:20.197Z,18.50
2018-09-09T03:28:51.413Z,17.60
2018-09-09T03:29:22.512Z,17.13
2018-09-09T03:29:53.688Z,17.30
2018-09-09T03:30:24.813Z,17.90
2018-09-09T03:30:55.936Z,17.60
2018-09-09T03:31:27.058Z,17.43
2018-09-09T03:31:58.279Z,17.17
2018-09-09T03:32:29.460Z,17.53
2018-09-09T03:33:00.581Z,17.87
2018-09-09T03:33:31.835Z,17.70
2018-09-09T03:34:02.987Z,17.00
2018-09-09T03:34:34.100Z,18.13
2018-09-09T03:35:05.306Z,18.23
2018-09-09T03:35:36.480Z,18.70
2018-09-09T03:36:07.668Z,17.87
2018-09-09T03:36:38.803Z,17.27
2018-09-09T03:37:09.996Z,17.10
2018-09-09T03:37:41.244Z,17.73
2018-09-09T03:38:12.418Z,17.23
2018-09-09T03:38:43.589Z,17.83
2018-09-09T03:39:14.778Z,17.13
2018-09-09T03:39:45.910Z,18.07
2018-09-09T03:40:17.099Z,17.43
2018-09-09T03:40:48.215Z,18.07
2018-09-09T03:41:19.339Z,18.37
2018-09-09T03:41:50.529Z,17.55
2018-09-09T03:42:21.701Z,17.77
2018-09-09T03:42:52.909Z,17.67
2018-09-09T03:43:24.145Z,16.20
2018-09-09T03:43:55.306Z,17.53
2018-09-09T03:44:26.435Z,16.17
2018-09-09T03:44:57.617Z,17.45
2018-09-09T03:45:28.792Z,16.62
2018-09-09T03:45:59.972Z,18.23
2018-09-09T03:46:31.177Z,16.93
2018-09-09T03:47:02.293Z,18.12
2018-09-09T03:47:33.496Z,16.90
2018-09-09T03:48:04.669Z,17.05
2018-09-09T03:48:35.803Z,18.40
2018-09-09T03:49:06.984Z,18.55
2018-09-09T03:49:38.111Z,17.85
2018-09-09T03:50:09.290Z,17.37
2018-09-09T03:50:40.436Z,15.73
2018-09-09T03:51:11.613Z,16.85
2018-09-09T03:51:42.848Z,17.23
2018-09-09T03:52:14.037Z,18.00
2018-09-09T03:52:45.219Z,15.50
2018-09-09T03:53:16.335Z,17.30
2018-09-09T03:53:47.513Z,16.73
2018-09-09T03:54:18.640Z,17.50
2018-09-09T03:54:49.759Z,17.60
2018-09-09T03:55:20.879Z,18.20
2018-09-09T03:55:51.998Z,17.17
2018-09-09T03:56:23.225Z,17.63
2018-09-09T03:56:54.349Z,16.62
2018-09-09T03:57:25.476Z,16.77
2018-09-09T03:57:56.590Z,16.87
2018-09-09T03:58:27.800Z,16.83
2018-09-09T03:58:58.912Z,17.07
2018-09-09T03:59:30.133Z,17.27
2018-09-09T04:00:01.377Z,17.80
2018-09-09T04:00:32.548Z,17.43
2018-09-09T04:01:03.678Z,15.73
2018-09-09T04:01:34.791Z,16.70
2018-09-09T04:02:05.916Z,17.20
2018-09-09T04:02:37.039Z,16.70
2018-09-09T04:03:08.315Z,16.67
2018-09-09T04:03:39.497Z,15.67
2018-09-09T04:04:10.684Z,17.42
2018-09-09T04:04:41.855Z,17.33
2018-09-09T04:05:12.963Z,17.87
2018-09-09T04:05:44.204Z,17.70
2018-09-09T04:06:15.399Z,16.65
2018-09-09T04:06:46.563Z,17.35
2018-09-09T04:07:17.729Z,18.23
2018-09-09T04:07:48.972Z,17.20
2018-09-09T04:08:20.157Z,17.80
2018-09-09T04:08:51.363Z,16.30
2018-09-09T04:09:22.500Z,15.83
2018-09-09T04:09:53.634Z,15.93
2018-09-09T04:10:24.817Z,16.77
2018-09-09T04:10:56.037Z,16.20
2018-09-09T04:11:27.245Z,16.27
2018-09-09T04:11:58.417Z,15.30
2018-09-09T04:12:29.551Z,14.87
2018-09-09T04:13:00.733Z,16.00
2018-09-09T04:13:31.906Z,17.00
2018-09-09T04:14:03.068Z,15.97
2018-09-09T04:14:34.303Z,16.07
2018-09-09T04:15:05.498Z,16.30
2018-09-09T04:15:36.737Z,16.27
2018-09-09T04:16:07.971Z,15.43
2018-09-09T04:16:39.145Z,15.93
2018-09-09T04:17:10.348Z,15.27
2018-09-09T04:17:41.466Z,15.10
2018-09-09T04:18:12.579Z,14.50
2018-09-09T04:18:43.740Z,16.33
2018-09-09T04:19:14.952Z,15.70
2018-09-09T04:19:46.078Z,15.73
2018-09-09T04:20:17.241Z,16.07
2018-09-09T04:20:48.470Z,15.37
2018-09-09T04:21:19.693Z,15.13
2018-09-09T04:21:50.936Z,15.33
2018-09-09T04:22:22.052Z,15.30
2018-09-09T04:22:53.223Z,15.77
2018-09-09T04:23:24.392Z,16.10
2018-09-09T04:23:55.503Z,14.53
2018-09-09T04:24:26.610Z,15.47
2018-09-09T04:24:57.726Z,15.17
2018-09-09T04:25:28.833Z,14.40
2018-09-09T04:25:59.988Z,14.80
2018-09-09T04:26:31.104Z,15.80
2018-09-09T04:27:02.211Z,16.07
2018-09-09T04:27:33.401Z,15.90
2018-09-09T04:28:04.574Z,15.60
2018-09-09T04:28:35.745Z,15.13
2018-09-09T04:29:06.926Z,15.07
2018-09-09T04:29:38.040Z,14.93
2018-09-09T04:30:09.213Z,15.03
2018-09-09T04:30:40.394Z,15.10
2018-09-09T04:31:11.633Z,15.50
2018-09-09T04:31:42.867Z,14.67
2018-09-09T04:32:13.976Z,15.40
2018-09-09T04:32:45.136Z,15.10
2018-09-09T04:33:16.256Z,15.57
2018-09-09T04:33:47.369Z,15.30
2018-09-09T04:34:18.540Z,15.13
2018-09-09T04:34:49.720Z,15.73
2018-09-09T04:35:20.900Z,15.10
2018-09-09T04:35:52.019Z,15.03
2018-09-09T04:36:23.223Z,14.53
2018-09-09T04:36:54.408Z,15.13
2018-09-09T04:37:25.535Z,15.37
2018-09-09T04:37:56.697Z,15.80
2018-09-09T04:38:27.817Z,15.67
2018-09-09T04:38:58.928Z,16.07
2018-09-09T04:39:30.136Z,14.47
2018-09-09T04:40:01.259Z,15.87
2018-09-09T04:40:32.364Z,15.73
2018-09-09T04:41:03.576Z,15.03
2018-09-09T04:41:34.748Z,16.20
2018-09-09T04:42:05.936Z,14.90
2018-09-09T04:42:37.097Z,14.93
2018-09-09T04:43:08.212Z,14.87
2018-09-09T04:43:39.327Z,15.00
2018-09-09T04:44:10.590Z,15.30
2018-09-09T04:44:41.744Z,17.80
2018-09-09T04:45:12.912Z,13.57
2018-09-09T04:45:44.084Z,14.07
2018-09-09T04:46:15.309Z,15.07
2018-09-09T04:46:46.469Z,15.50
2018-09-09T04:47:17.600Z,15.47
2018-09-09T04:47:48.773Z,15.60
2018-09-09T04:48:19.989Z,14.27
2018-09-09T04:48:51.223Z,14.40
2018-09-09T04:49:22.392Z,15.97
2018-09-09T04:49:53.507Z,14.67
2018-09-09T04:50:24.730Z,14.63
2018-09-09T04:50:55.932Z,13.97
2018-09-09T04:51:27.108Z,14.03
2018-09-09T04:51:58.229Z,14.43
2018-09-09T04:52:29.412Z,14.13
2018-09-09T04:53:00.592Z,14.33
2018-09-09T04:53:31.757Z,14.23
2018-09-09T04:54:02.940Z,13.87
2018-09-09T04:54:34.146Z,14.03
2018-09-09T04:55:05.308Z,13.63
2018-09-09T04:55:36.424Z,13.90
2018-09-09T04:56:07.584Z,14.40
2018-09-09T04:56:38.762Z,14.50
2018-09-09T04:57:09.931Z,15.13
2018-09-09T04:57:41.069Z,14.60
2018-09-09T04:58:12.182Z,14.83
2018-09-09T04:58:43.345Z,14.63
2018-09-09T04:59:14.565Z,14.67
2018-09-09T04:59:46.349Z,13.50
2018-09-09T05:00:17.560Z,14.53
2018-09-09T05:00:48.693Z,15.10
2018-09-09T05:01:19.909Z,14.83
2018-09-09T05:01:50.946Z,15.77
2018-09-09T05:02:22.114Z,14.90
2018-09-09T05:02:53.236Z,13.57
2018-09-09T05:03:24.425Z,14.07
2018-09-09T05:03:55.601Z,14.13
2018-09-09T05:04:26.801Z,15.07
2018-09-09T05:04:57.928Z,13.87
2018-09-09T05:05:29.126Z,14.17
2018-09-09T05:06:00.306Z,15.23
2018-09-09T05:06:31.429Z,15.23
2018-09-09T05:07:02.656Z,15.17
2018-09-09T05:07:33.780Z,14.03
2018-09-09T05:08:04.954Z,14.60
2018-09-09T05:08:36.079Z,14.17
2018-09-09T05:09:07.242Z,14.50
2018-09-09T05:09:38.421Z,14.73
2018-09-09T05:10:09.596Z,14.80
2018-09-09T05:10:40.749Z,14.63
2018-09-09T05:11:11.917Z,14.93
2018-09-09T05:11:43.037Z,15.23
2018-09-09T05:12:14.150Z,15.10
2018-09-09T05:12:45.278Z,14.47
2018-09-09T05:13:16.446Z,14.40
2018-09-09T05:13:47.628Z,15.30
2018-09-09T05:14:18.749Z,15.47
2018-09-09T05:14:49.865Z,14.17
2018-09-09T05:15:21.044Z,13.93
2018-09-09T05:15:52.268Z,14.80
2018-09-09T05:16:23.373Z,13.80
2018-09-09T05:16:54.495Z,14.80
2018-09-09T05:17:25.661Z,14.87
2018-09-09T05:17:56.782Z,14.60
2018-09-09T05:18:27.969Z,13.47
2018-09-09T05:18:59.116Z,13.93
2018-09-09T05:19:30.284Z,14.97
2018-09-09T05:20:01.643Z,14.70
2018-09-09T05:20:32.838Z,14.57
2018-09-09T05:21:04.003Z,14.90
2018-09-09T05:21:35.173Z,14.77
2018-09-09T05:22:06.415Z,13.57
2018-09-09T05:22:37.649Z,15.20
2018-09-09T05:23:08.834Z,13.77
2018-09-09T05:23:39.973Z,14.67
2018-09-09T05:24:11.138Z,14.10
2018-09-09T05:24:42.313Z,15.40
2018-09-09T05:25:13.432Z,14.53
2018-09-09T05:25:45.209Z,14.27
2018-09-09T05:26:16.396Z,14.70
2018-09-09T05:26:47.504Z,14.73
2018-09-09T05:27:18.666Z,15.07
2018-09-09T05:27:49.880Z,14.73
2018-09-09T05:28:21.062Z,14.00
2018-09-09T05:28:52.223Z,13.80
2018-09-09T05:29:23.409Z,13.73
2018-09-09T05:29:54.594Z,13.30
2018-09-09T05:30:25.823Z,14.67
2018-09-09T05:30:56.948Z,13.53
2018-09-09T05:31:28.194Z,14.10
2018-09-09T05:31:59.368Z,15.13
2018-09-09T05:32:30.582Z,14.33
2018-09-09T05:33:01.698Z,14.60
2018-09-09T05:33:32.846Z,15.00
2018-09-09T05:34:04.064Z,14.70
2018-09-09T05:34:35.274Z,13.27
2018-09-09T05:35:06.396Z,14.00
2018-09-09T05:35:37.619Z,13.43
2018-09-09T05:36:08.794Z,13.77
2018-09-09T05:36:39.923Z,14.10
2018-09-09T05:37:11.163Z,14.43
2018-09-09T05:37:42.344Z,14.23
2018-09-09T05:38:13.521Z,15.13
2018-09-09T05:38:44.831Z,13.83
2018-09-09T05:39:16.612Z,13.83
2018-09-09T05:39:47.731Z,13.67
2018-09-09T05:40:18.852Z,12.57
2018-09-09T05:40:49.959Z,12.93
2018-09-09T05:41:21.077Z,13.40
2018-09-09T05:41:52.188Z,14.33
2018-09-09T05:42:23.449Z,13.60
2018-09-09T05:42:54.557Z,14.00
2018-09-09T05:43:25.726Z,13.57
2018-09-09T05:43:56.933Z,13.63
2018-09-09T05:44:28.108Z,14.00
2018-09-09T05:44:59.295Z,13.63
2018-09-09T05:45:30.480Z,14.50
2018-09-09T05:46:01.652Z,14.43
2018-09-09T05:46:32.861Z,14.50
2018-09-09T05:47:03.972Z,13.23
2018-09-09T05:47:35.087Z,14.27
2018-09-09T05:48:06.254Z,13.90
2018-09-09T05:48:37.389Z,12.80
2018-09-09T05:49:08.592Z,13.17
2018-09-09T05:49:39.772Z,13.07
2018-09-09T05:50:10.890Z,13.03
2018-09-09T05:50:42.125Z,13.30
2018-09-09T05:51:13.316Z,13.00
2018-09-09T05:51:44.533Z,13.03
2018-09-09T05:52:15.658Z,14.17
2018-09-09T05:52:46.775Z,13.17
2018-09-09T05:53:17.953Z,12.67
2018-09-09T05:53:49.137Z,13.90
2018-09-09T05:54:20.258Z,13.93
2018-09-09T05:54:51.371Z,13.80
2018-09-09T05:55:22.551Z,14.43
2018-09-09T05:55:53.730Z,13.40
2018-09-09T05:56:24.844Z,13.37
2018-09-09T05:56:56.110Z,13.77
2018-09-09T05:57:27.312Z,13.83
2018-09-09T05:57:58.519Z,13.97
2018-09-09T05:58:29.673Z,13.57
2018-09-09T05:59:00.840Z,13.07
2018-09-09T05:59:32.090Z,13.13
2018-09-09T06:00:03.216Z,13.23
2018-09-09T06:00:34.340Z,13.30
2018-09-09T06:01:05.513Z,13.00
2018-09-09T06:01:36.744Z,11.97
2018-09-09T06:02:07.931Z,12.97
2018-09-09T06:02:39.095Z,13.60
2018-09-09T06:03:10.329Z,13.63
2018-09-09T06:03:41.513Z,13.43
2018-09-09T06:04:12.681Z,13.30
2018-09-09T06:04:43.921Z,12.53
2018-09-09T06:05:15.113Z,13.37
2018-09-09T06:05:46.277Z,13.47
2018-09-09T06:06:17.502Z,12.47
2018-09-09T06:06:48.625Z,13.70
2018-09-09T06:07:19.755Z,14.00
2018-09-09T06:07:50.877Z,13.60
2018-09-09T06:08:22.094Z,13.97
2018-09-09T06:08:53.203Z,12.43
2018-09-09T06:09:24.404Z,13.13
2018-09-09T06:09:55.527Z,12.97
2018-09-09T06:10:26.708Z,13.10
2018-09-09T06:10:57.893Z,14.33
2018-09-09T06:11:29.059Z,12.13
2018-09-09T06:12:00.232Z,13.43
2018-09-09T06:12:31.368Z,13.90
2018-09-09T06:13:02.481Z,13.43
2018-09-09T06:13:33.599Z,12.80
2018-09-09T06:14:04.783Z,14.07
2018-09-09T06:14:35.940Z,13.70
2018-09-09T06:15:07.173Z,13.67
2018-09-09T06:15:38.296Z,12.67
2018-09-09T06:16:09.481Z,13.57
2018-09-09T06:16:40.712Z,13.00
2018-09-09T06:17:11.893Z,14.27
2018-09-09T06:17:43.080Z,13.37
2018-09-09T06:18:14.255Z,13.10
2018-09-09T06:18:45.424Z,12.80
2018-09-09T06:19:16.618Z,13.67
2018-09-09T06:19:47.824Z,13.77
2018-09-09T06:20:18.993Z,12.97
2018-09-09T06:20:50.175Z,13.27
2018-09-09T06:21:21.309Z,12.20
2018-09-09T06:21:52.441Z,12.93
2018-09-09T06:22:23.669Z,13.37
2018-09-09T06:22:54.844Z,14.60
2018-09-09T06:23:26.023Z,13.33
2018-09-09T06:23:57.156Z,13.20
2018-09-09T06:24:28.277Z,13.33
2018-09-09T06:24:59.403Z,13.10
2018-09-09T06:25:30.648Z,11.97
2018-09-09T06:26:01.820Z,14.07
2018-09-09T06:26:32.951Z,12.97
2018-09-09T06:27:04.077Z,12.53
2018-09-09T06:27:35.198Z,13.57
2018-09-09T06:28:06.391Z,13.90
2018-09-09T06:28:37.500Z,13.73
2018-09-09T06:29:08.624Z,13.43
2018-09-09T06:29:39.751Z,13.40
2018-09-09T06:30:10.972Z,13.53
2018-09-09T06:30:42.144Z,13.00
2018-09-09T06:31:13.385Z,12.63
2018-09-09T06:31:44.574Z,13.00
2018-09-09T06:32:15.807Z,13.27
2018-09-09T06:32:46.988Z,12.70
2018-09-09T06:33:18.236Z,13.63
2018-09-09T06:33:49.450Z,13.37
2018-09-09T06:34:20.571Z,13.17
2018-09-09T06:34:51.684Z,13.60
2018-09-09T06:35:22.822Z,13.30
2018-09-09T06:35:53.956Z,14.40
2018-09-09T06:36:25.134Z,13.83
2018-09-09T06:36:56.305Z,12.93
2018-09-09T06:37:27.440Z,13.90
2018-09-09T06:37:58.612Z,13.07
2018-09-09T06:38:29.859Z,13.63
2018-09-09T06:39:01.082Z,13.27
2018-09-09T06:39:32.253Z,12.37
2018-09-09T06:40:03.368Z,14.30
2018-09-09T06:40:34.544Z,13.07
2018-09-09T06:41:05.663Z,14.00